sensor_id;sensor_type;location;lat;lon;timestamp;P1;durP1;ratioP1;P2;durP2;ratioP2
10009;SDS011;5044;48.652;9.250;2024-03-02T02:37:58;9.35;;;4.57;;
10009;SDS011;5044;48.652;9.250;2024-03-02T02:40:29;7.80;;;3.78;;
10009;SDS011;5044;48.652;9.250;2024-03-02T02:43:04;12.32;;;4.47;;
10009;SDS011;5044;48.652;9.250;2024-03-02T02:45:38;9.63;;;4.45;;
10009;SDS011;5044;48.652;9.250;2024-03-02T02:48:13;7.90;;;4.70;;
10009;SDS011;5044;48.652;9.250;2024-03-02T02:50:48;9.90;;;4.35;;
10009;SDS011;5044;48.652;9.250;2024-03-02T13:37:51;0.82;;;0.65;;
10009;SDS011;5044;48.652;9.250;2024-03-02T13:44:22;0.52;;;0.52;;
10009;SDS011;5044;48.652;9.250;2024-03-02T13:47:16;1.80;;;0.70;;
10009;SDS011;5044;48.652;9.250;2024-03-02T13:49:43;1.10;;;0.68;;
10009;SDS011;5044;48.652;9.250;2024-03-02T13:52:12;0.98;;;0.80;;
10009;SDS011;5044;48.652;9.250;2024-03-02T13:54:41;1.35;;;0.80;;
10009;SDS011;5044;48.652;9.250;2024-03-02T13:57:09;1.88;;;0.70;;
10009;SDS011;5044;48.652;9.250;2024-03-02T13:59:37;0.52;;;0.43;;
10009;SDS011;5044;48.652;9.250;2024-03-02T14:02:05;3.38;;;0.55;;
10009;SDS011;5044;48.652;9.250;2024-03-02T14:04:32;0.65;;;0.52;;
10009;SDS011;5044;48.652;9.250;2024-03-02T14:07:18;0.68;;;0.50;;
10009;SDS011;5044;48.652;9.250;2024-03-02T14:09:55;1.23;;;0.57;;
10009;SDS011;5044;48.652;9.250;2024-03-02T14:12:22;3.33;;;0.50;;
10009;SDS011;5044;48.652;9.250;2024-03-02T14:14:50;1.33;;;0.47;;
10009;SDS011;5044;48.652;9.250;2024-03-02T14:17:20;0.75;;;0.60;;
10009;SDS011;5044;48.652;9.250;2024-03-02T14:19:54;0.73;;;0.40;;
10009;SDS011;5044;48.652;9.250;2024-03-02T14:22:22;1.85;;;0.77;;
10009;SDS011;5044;48.652;9.250;2024-03-02T14:24:49;0.73;;;0.60;;
10009;SDS011;5044;48.652;9.250;2024-03-02T14:27:17;0.65;;;0.57;;
10009;SDS011;5044;48.652;9.250;2024-03-02T14:29:46;0.60;;;0.50;;
10009;SDS011;5044;48.652;9.250;2024-03-02T14:32:16;1.30;;;0.57;;
10009;SDS011;5044;48.652;9.250;2024-03-02T14:34:50;0.50;;;0.40;;
10009;SDS011;5044;48.652;9.250;2024-03-02T14:37:23;0.93;;;0.40;;
10009;SDS011;5044;48.652;9.250;2024-03-02T14:39:52;0.40;;;0.40;;
10009;SDS011;5044;48.652;9.250;2024-03-02T14:42:22;0.63;;;0.40;;
10009;SDS011;5044;48.652;9.250;2024-03-02T14:44:51;1.85;;;0.40;;
10009;SDS011;5044;48.652;9.250;2024-03-02T14:47:33;0.40;;;0.40;;
10009;SDS011;5044;48.652;9.250;2024-03-02T14:50:32;0.80;;;0.40;;
10009;SDS011;5044;48.652;9.250;2024-03-02T14:53:11;0.70;;;0.40;;
10009;SDS011;5044;48.652;9.250;2024-03-02T14:55:50;0.63;;;0.50;;
10009;SDS011;5044;48.652;9.250;2024-03-02T14:58:21;0.57;;;0.32;;
10009;SDS011;5044;48.652;9.250;2024-03-02T15:01:00;1.70;;;0.57;;
10009;SDS011;5044;48.652;9.250;2024-03-02T15:03:30;0.73;;;0.53;;
10009;SDS011;5044;48.652;9.250;2024-03-02T15:06:06;0.70;;;0.50;;
10009;SDS011;5044;48.652;9.250;2024-03-02T15:10:11;2.65;;;0.45;;
10009;SDS011;5044;48.652;9.250;2024-03-02T15:11:37;1.57;;;0.50;;
10009;SDS011;5044;48.652;9.250;2024-03-02T15:17:11;0.73;;;0.55;;
10009;SDS011;5044;48.652;9.250;2024-03-02T15:19:43;0.88;;;0.50;;
10009;SDS011;5044;48.652;9.250;2024-03-02T15:22:12;1.02;;;0.55;;
10009;SDS011;5044;48.652;9.250;2024-03-02T15:24:48;2.63;;;0.60;;
10009;SDS011;5044;48.652;9.250;2024-03-02T15:27:16;1.15;;;0.35;;
10009;SDS011;5044;48.652;9.250;2024-03-02T15:29:46;2.58;;;0.50;;
10009;SDS011;5044;48.652;9.250;2024-03-02T15:32:17;0.43;;;0.30;;
10009;SDS011;5044;48.652;9.250;2024-03-02T15:34:50;1.30;;;0.50;;
10009;SDS011;5044;48.652;9.250;2024-03-02T15:37:20;1.48;;;0.60;;
10009;SDS011;5044;48.652;9.250;2024-03-02T15:39:50;0.55;;;0.52;;
10009;SDS011;5044;48.652;9.250;2024-03-02T15:42:30;0.98;;;0.45;;
10009;SDS011;5044;48.652;9.250;2024-03-02T17:20:37;2.75;;;1.63;;
10009;SDS011;5044;48.652;9.250;2024-03-02T17:30:44;3.95;;;2.13;;
10009;SDS011;5044;48.652;9.250;2024-03-02T17:33:56;5.90;;;2.33;;
10009;SDS011;5044;48.652;9.250;2024-03-02T17:50:29;3.88;;;2.20;;
10009;SDS011;5044;48.652;9.250;2024-03-02T17:51:56;5.28;;;2.97;;
10009;SDS011;5044;48.652;9.250;2024-03-02T17:54:50;4.70;;;2.90;;
10009;SDS011;5044;48.652;9.250;2024-03-02T18:01:19;7.63;;;4.30;;
10009;SDS011;5044;48.652;9.250;2024-03-02T18:03:53;6.38;;;3.83;;
10009;SDS011;5044;48.652;9.250;2024-03-02T18:37:27;14.10;;;7.18;;
10009;SDS011;5044;48.652;9.250;2024-03-02T18:39:54;14.88;;;7.03;;
10009;SDS011;5044;48.652;9.250;2024-03-02T18:42:22;15.63;;;7.80;;
10009;SDS011;5044;48.652;9.250;2024-03-02T18:44:50;12.15;;;6.72;;
10009;SDS011;5044;48.652;9.250;2024-03-02T18:47:17;14.65;;;6.60;;
10009;SDS011;5044;48.652;9.250;2024-03-02T18:49:44;12.80;;;6.28;;
10009;SDS011;5044;48.652;9.250;2024-03-02T18:52:11;14.13;;;7.63;;
10009;SDS011;5044;48.652;9.250;2024-03-02T18:54:42;14.15;;;6.82;;
10009;SDS011;5044;48.652;9.250;2024-03-02T18:57:09;13.93;;;7.82;;
10009;SDS011;5044;48.652;9.250;2024-03-02T18:59:37;13.02;;;6.40;;
10009;SDS011;5044;48.652;9.250;2024-03-02T19:02:06;14.40;;;8.52;;
10009;SDS011;5044;48.652;9.250;2024-03-02T19:07:03;14.38;;;7.30;;
10009;SDS011;5044;48.652;9.250;2024-03-02T19:09:30;14.88;;;8.35;;
10009;SDS011;5044;48.652;9.250;2024-03-02T19:11:59;17.35;;;8.23;;
10009;SDS011;5044;48.652;9.250;2024-03-02T19:14:26;15.40;;;8.10;;
10009;SDS011;5044;48.652;9.250;2024-03-02T19:16:53;16.83;;;8.20;;
10009;SDS011;5044;48.652;9.250;2024-03-02T19:19:20;16.98;;;8.00;;
10009;SDS011;5044;48.652;9.250;2024-03-02T19:21:47;16.05;;;9.07;;
10009;SDS011;5044;48.652;9.250;2024-03-02T19:24:14;16.13;;;8.80;;
10009;SDS011;5044;48.652;9.250;2024-03-02T19:26:41;13.27;;;8.15;;
10009;SDS011;5044;48.652;9.250;2024-03-02T19:29:10;20.08;;;9.00;;
10009;SDS011;5044;48.652;9.250;2024-03-02T19:31:37;13.85;;;8.02;;
10009;SDS011;5044;48.652;9.250;2024-03-02T19:34:06;14.57;;;8.05;;
10009;SDS011;5044;48.652;9.250;2024-03-02T19:36:33;16.02;;;7.80;;
10009;SDS011;5044;48.652;9.250;2024-03-02T19:39:00;14.77;;;8.65;;
10009;SDS011;5044;48.652;9.250;2024-03-02T19:41:27;14.55;;;7.75;;
10009;SDS011;5044;48.652;9.250;2024-03-02T19:43:56;17.65;;;7.85;;
10009;SDS011;5044;48.652;9.250;2024-03-02T19:46:27;14.95;;;7.30;;
10009;SDS011;5044;48.652;9.250;2024-03-02T19:48:54;16.95;;;7.40;;
10009;SDS011;5044;48.652;9.250;2024-03-02T19:51:21;11.93;;;7.47;;
10009;SDS011;5044;48.652;9.250;2024-03-02T19:53:50;14.85;;;7.22;;
10009;SDS011;5044;48.652;9.250;2024-03-02T19:56:17;15.32;;;8.27;;
10009;SDS011;5044;48.652;9.250;2024-03-02T19:58:45;15.93;;;7.82;;
10009;SDS011;5044;48.652;9.250;2024-03-02T20:01:12;14.80;;;8.60;;
10009;SDS011;5044;48.652;9.250;2024-03-02T20:03:44;15.47;;;8.87;;
10009;SDS011;5044;48.652;9.250;2024-03-02T20:06:14;19.77;;;8.73;;
10009;SDS011;5044;48.652;9.250;2024-03-02T20:08:41;20.55;;;8.68;;
10009;SDS011;5044;48.652;9.250;2024-03-02T20:11:09;14.77;;;8.15;;
10009;SDS011;5044;48.652;9.250;2024-03-02T20:13:38;13.88;;;7.13;;
10009;SDS011;5044;48.652;9.250;2024-03-02T20:16:06;16.02;;;7.60;;
10009;SDS011;5044;48.652;9.250;2024-03-02T20:18:34;19.58;;;9.13;;
10009;SDS011;5044;48.652;9.250;2024-03-02T20:21:03;15.48;;;8.30;;
10009;SDS011;5044;48.652;9.250;2024-03-02T20:23:31;16.77;;;7.05;;
10009;SDS011;5044;48.652;9.250;2024-03-02T20:25:58;15.10;;;7.15;;
10009;SDS011;5044;48.652;9.250;2024-03-02T20:28:25;15.85;;;8.27;;
10009;SDS011;5044;48.652;9.250;2024-03-02T20:30:52;13.82;;;7.22;;
10009;SDS011;5044;48.652;9.250;2024-03-02T20:33:19;14.98;;;8.80;;
10009;SDS011;5044;48.652;9.250;2024-03-02T20:35:47;14.50;;;7.63;;
10009;SDS011;5044;48.652;9.250;2024-03-02T20:38:16;15.27;;;8.43;;
10009;SDS011;5044;48.652;9.250;2024-03-02T20:40:43;15.25;;;7.95;;
10009;SDS011;5044;48.652;9.250;2024-03-02T20:43:15;15.23;;;8.00;;
10009;SDS011;5044;48.652;9.250;2024-03-02T20:45:43;16.77;;;8.05;;
10009;SDS011;5044;48.652;9.250;2024-03-02T20:48:10;17.45;;;8.07;;
10009;SDS011;5044;48.652;9.250;2024-03-02T20:50:37;18.20;;;7.68;;
10009;SDS011;5044;48.652;9.250;2024-03-02T20:53:05;16.10;;;7.53;;
10009;SDS011;5044;48.652;9.250;2024-03-02T20:55:35;15.48;;;7.75;;
10009;SDS011;5044;48.652;9.250;2024-03-02T20:58:04;16.45;;;8.07;;
10009;SDS011;5044;48.652;9.250;2024-03-02T21:00:31;17.08;;;8.27;;
10009;SDS011;5044;48.652;9.250;2024-03-02T21:02:58;19.42;;;9.27;;
10009;SDS011;5044;48.652;9.250;2024-03-02T21:05:25;16.20;;;8.93;;
10009;SDS011;5044;48.652;9.250;2024-03-02T21:07:52;19.88;;;9.15;;
10009;SDS011;5044;48.652;9.250;2024-03-02T21:10:20;16.02;;;8.98;;
10009;SDS011;5044;48.652;9.250;2024-03-02T21:12:49;23.98;;;10.45;;
10009;SDS011;5044;48.652;9.250;2024-03-02T21:15:16;17.25;;;8.77;;
10009;SDS011;5044;48.652;9.250;2024-03-02T21:17:43;24.60;;;9.07;;
10009;SDS011;5044;48.652;9.250;2024-03-02T21:20:11;23.77;;;10.32;;
10009;SDS011;5044;48.652;9.250;2024-03-02T21:22:38;23.33;;;9.95;;
10009;SDS011;5044;48.652;9.250;2024-03-02T21:25:09;21.38;;;9.43;;
10009;SDS011;5044;48.652;9.250;2024-03-02T21:27:37;20.55;;;8.75;;
10009;SDS011;5044;48.652;9.250;2024-03-02T21:30:07;23.23;;;10.57;;
10009;SDS011;5044;48.652;9.250;2024-03-02T21:32:37;17.20;;;9.38;;
10009;SDS011;5044;48.652;9.250;2024-03-02T21:35:05;19.42;;;9.43;;
10009;SDS011;5044;48.652;9.250;2024-03-02T21:37:32;16.83;;;9.02;;
10009;SDS011;5044;48.652;9.250;2024-03-02T21:39:59;19.85;;;9.93;;
10009;SDS011;5044;48.652;9.250;2024-03-02T21:42:27;18.20;;;8.90;;
10009;SDS011;5044;48.652;9.250;2024-03-02T21:44:55;17.67;;;9.95;;
10009;SDS011;5044;48.652;9.250;2024-03-02T21:47:24;19.25;;;9.63;;
10009;SDS011;5044;48.652;9.250;2024-03-02T21:49:51;17.20;;;8.98;;
10009;SDS011;5044;48.652;9.250;2024-03-02T21:52:18;20.83;;;8.52;;
10009;SDS011;5044;48.652;9.250;2024-03-02T21:54:46;19.52;;;9.43;;
10009;SDS011;5044;48.652;9.250;2024-03-02T21:57:13;23.20;;;10.23;;
10009;SDS011;5044;48.652;9.250;2024-03-02T21:59:44;20.83;;;9.65;;
10009;SDS011;5044;48.652;9.250;2024-03-02T22:02:13;17.88;;;9.35;;
10009;SDS011;5044;48.652;9.250;2024-03-02T22:04:42;18.23;;;8.80;;
10009;SDS011;5044;48.652;9.250;2024-03-02T22:07:09;18.10;;;8.68;;
10009;SDS011;5044;48.652;9.250;2024-03-02T22:09:36;19.20;;;9.05;;
10009;SDS011;5044;48.652;9.250;2024-03-02T22:12:03;20.67;;;10.80;;
10009;SDS011;5044;48.652;9.250;2024-03-02T22:14:31;25.42;;;10.40;;
10009;SDS011;5044;48.652;9.250;2024-03-02T22:16:58;22.77;;;9.75;;
10009;SDS011;5044;48.652;9.250;2024-03-02T22:19:25;16.45;;;9.38;;
10009;SDS011;5044;48.652;9.250;2024-03-02T22:21:54;16.63;;;9.57;;
10009;SDS011;5044;48.652;9.250;2024-03-02T22:24:21;21.58;;;10.30;;
10009;SDS011;5044;48.652;9.250;2024-03-02T22:26:50;22.45;;;10.30;;
10009;SDS011;5044;48.652;9.250;2024-03-02T22:29:17;21.08;;;9.63;;
10009;SDS011;5044;48.652;9.250;2024-03-02T22:31:45;19.13;;;9.85;;
10009;SDS011;5044;48.652;9.250;2024-03-02T22:34:11;23.38;;;10.52;;
10009;SDS011;5044;48.652;9.250;2024-03-02T22:36:40;19.00;;;10.00;;
10009;SDS011;5044;48.652;9.250;2024-03-02T22:39:09;18.73;;;8.95;;
10009;SDS011;5044;48.652;9.250;2024-03-02T22:41:36;19.98;;;10.30;;
10009;SDS011;5044;48.652;9.250;2024-03-02T22:44:03;15.07;;;8.63;;
10009;SDS011;5044;48.652;9.250;2024-03-02T22:46:30;23.83;;;9.65;;
10009;SDS011;5044;48.652;9.250;2024-03-02T22:48:57;19.73;;;10.15;;
10009;SDS011;5044;48.652;9.250;2024-03-02T22:51:25;22.75;;;10.57;;
10009;SDS011;5044;48.652;9.250;2024-03-02T22:53:52;21.30;;;10.77;;
10009;SDS011;5044;48.652;9.250;2024-03-02T22:56:21;18.60;;;9.55;;
10009;SDS011;5044;48.652;9.250;2024-03-02T22:58:49;22.58;;;11.05;;
10009;SDS011;5044;48.652;9.250;2024-03-02T23:01:16;22.02;;;10.48;;
10009;SDS011;5044;48.652;9.250;2024-03-02T23:03:46;18.33;;;9.57;;
10009;SDS011;5044;48.652;9.250;2024-03-02T23:06:14;22.17;;;11.30;;
10009;SDS011;5044;48.652;9.250;2024-03-02T23:08:41;25.52;;;11.98;;
10009;SDS011;5044;48.652;9.250;2024-03-02T23:11:08;23.17;;;11.23;;
10009;SDS011;5044;48.652;9.250;2024-03-02T23:13:37;22.83;;;10.68;;
10009;SDS011;5044;48.652;9.250;2024-03-02T23:16:04;22.05;;;11.35;;
10009;SDS011;5044;48.652;9.250;2024-03-02T23:18:31;19.17;;;10.23;;
10009;SDS011;5044;48.652;9.250;2024-03-02T23:21:00;18.15;;;10.43;;
10009;SDS011;5044;48.652;9.250;2024-03-02T23:23:27;27.35;;;11.73;;
10009;SDS011;5044;48.652;9.250;2024-03-02T23:25:54;23.05;;;10.40;;
10009;SDS011;5044;48.652;9.250;2024-03-02T23:28:21;21.98;;;9.73;;
10009;SDS011;5044;48.652;9.250;2024-03-02T23:30:52;25.08;;;11.43;;
10009;SDS011;5044;48.652;9.250;2024-03-02T23:33:19;26.02;;;11.35;;
10009;SDS011;5044;48.652;9.250;2024-03-02T23:35:46;26.13;;;10.88;;
10009;SDS011;5044;48.652;9.250;2024-03-02T23:38:14;27.35;;;12.07;;
10009;SDS011;5044;48.652;9.250;2024-03-02T23:40:41;24.75;;;11.80;;
10009;SDS011;5044;48.652;9.250;2024-03-02T23:43:33;22.25;;;9.75;;
10009;SDS011;5044;48.652;9.250;2024-03-02T23:46:02;27.92;;;12.20;;
10009;SDS011;5044;48.652;9.250;2024-03-02T23:48:35;24.67;;;11.73;;
10009;SDS011;5044;48.652;9.250;2024-03-02T23:51:05;27.55;;;11.98;;
10009;SDS011;5044;48.652;9.250;2024-03-02T23:53:32;26.77;;;12.32;;
10009;SDS011;5044;48.652;9.250;2024-03-02T23:56:06;25.88;;;11.32;;
10009;SDS011;5044;48.652;9.250;2024-03-02T23:58:34;25.77;;;12.30;;
